createdAt,value
2019-03-04T00:03:50.140Z,4.80
2019-03-04T00:08:54.367Z,4.77
2019-03-04T00:13:58.596Z,5.53
2019-03-04T00:19:02.822Z,4.57
2019-03-04T00:24:07.266Z,5.23
2019-03-04T00:29:11.493Z,5.97
2019-03-04T00:34:15.727Z,5.13
2019-03-04T00:39:19.960Z,4.90
2019-03-04T00:44:24.197Z,5.67
2019-03-04T00:49:28.447Z,5.03
2019-03-04T00:54:32.678Z,4.37
2019-03-04T00:59:36.907Z,4.90
2019-03-04T01:04:41.125Z,4.20
2019-03-04T01:09:45.361Z,4.30
2019-03-04T01:14:49.589Z,4.23
2019-03-04T01:19:53.790Z,5.00
2019-03-04T01:24:58.154Z,4.57
2019-03-04T01:30:02.596Z,3.93
2019-03-04T01:35:07.079Z,4.57
2019-03-04T01:40:13.906Z,4.83
2019-03-04T01:45:18.859Z,4.40
2019-03-04T01:50:23.091Z,4.30
2019-03-04T01:55:27.312Z,4.33
2019-03-04T02:00:31.533Z,4.00
2019-03-04T02:05:35.767Z,4.33
2019-03-04T02:10:39.981Z,4.03
2019-03-04T02:15:44.200Z,4.40
2019-03-04T02:20:48.420Z,4.00
2019-03-04T02:26:22.945Z,4.27
2019-03-04T02:31:27.229Z,4.57
2019-03-04T02:36:31.453Z,4.57
2019-03-04T02:41:35.685Z,4.50
2019-03-04T02:46:39.874Z,4.40
2019-03-04T02:51:44.097Z,4.13
2019-03-04T02:56:48.300Z,4.37
2019-03-04T03:01:52.530Z,3.73
2019-03-04T03:06:56.759Z,4.17
2019-03-04T03:12:00.982Z,4.00
2019-03-04T03:17:05.198Z,4.57
2019-03-04T03:22:09.411Z,4.80
2019-03-04T03:27:13.626Z,4.43
2019-03-04T03:32:17.889Z,4.17
2019-03-04T03:37:22.098Z,4.47
2019-03-04T03:42:26.533Z,4.50
2019-03-04T03:47:30.930Z,4.03
2019-03-04T03:52:35.137Z,5.23
2019-03-04T03:57:39.355Z,4.50
2019-03-04T04:02:43.585Z,4.57
2019-03-04T04:07:47.790Z,4.43
2019-03-04T04:12:52.000Z,4.23
2019-03-04T04:17:56.211Z,4.27
2019-03-04T04:23:00.414Z,4.80
2019-03-04T04:28:07.371Z,4.23
2019-03-04T04:33:11.596Z,4.90
2019-03-04T04:38:15.828Z,4.90
2019-03-04T04:43:20.052Z,4.43
2019-03-04T04:48:24.476Z,4.60
2019-03-04T04:53:28.693Z,4.60
2019-03-04T04:58:32.933Z,4.40
2019-03-04T05:03:37.138Z,4.00
2019-03-04T05:08:41.361Z,4.37
2019-03-04T05:13:45.566Z,4.40
2019-03-04T05:18:49.804Z,4.40
2019-03-04T05:23:54.050Z,4.20
2019-03-04T05:28:58.323Z,4.10
2019-03-04T05:34:02.564Z,4.60
2019-03-04T05:39:07.977Z,5.07
2019-03-04T05:44:12.197Z,4.37
2019-03-04T05:49:16.427Z,4.70
2019-03-04T05:54:20.637Z,4.50
2019-03-04T05:59:24.866Z,4.30
2019-03-04T06:04:29.105Z,4.30
2019-03-04T06:09:33.362Z,4.20
2019-03-04T06:14:37.624Z,4.50
2019-03-04T06:19:43.953Z,4.20
2019-03-04T06:24:47.764Z,4.47
2019-03-04T06:29:51.983Z,4.30
2019-03-04T06:34:56.220Z,4.17
2019-03-04T06:40:00.443Z,4.13
2019-03-04T06:45:05.558Z,3.70
2019-03-04T06:50:29.644Z,4.97
2019-03-04T06:56:03.169Z,5.03
2019-03-04T07:01:14.479Z,5.17
2019-03-04T07:06:18.706Z,4.03
2019-03-04T07:11:22.938Z,4.13
2019-03-04T07:16:27.204Z,3.87
2019-03-04T07:21:31.417Z,4.57
2019-03-04T07:26:35.635Z,3.93
2019-03-04T07:31:39.869Z,4.03
2019-03-04T07:36:44.094Z,3.10
2019-03-04T07:41:50.403Z,3.30
2019-03-04T07:46:54.626Z,3.33
2019-03-04T07:51:58.993Z,3.30
2019-03-04T07:57:03.733Z,3.17
2019-03-04T08:02:07.960Z,3.10
2019-03-04T08:07:47.915Z,3.60
2019-03-04T08:13:08.448Z,3.90
2019-03-04T08:18:12.682Z,3.40
2019-03-04T08:23:16.901Z,3.97
2019-03-04T08:28:21.116Z,3.40
2019-03-04T08:33:25.426Z,4.10
2019-03-04T08:38:29.578Z,3.57
2019-03-04T08:43:33.849Z,3.50
2019-03-04T08:48:38.155Z,3.40
2019-03-04T08:53:42.383Z,3.05
2019-03-04T08:58:46.593Z,3.40
2019-03-04T09:03:50.821Z,3.62
2019-03-04T09:08:55.218Z,3.47
2019-03-04T09:13:59.431Z,3.20
2019-03-04T09:19:03.672Z,3.67
2019-03-04T09:24:07.915Z,3.33
2019-03-04T09:29:12.138Z,2.83
2019-03-04T09:34:16.468Z,2.90
2019-03-04T09:39:20.673Z,3.12
2019-03-04T09:44:24.900Z,2.95
2019-03-04T09:49:29.136Z,3.05
2019-03-04T09:54:33.361Z,2.92
2019-03-04T09:59:37.601Z,3.25
2019-03-04T10:05:35.018Z,2.85
2019-03-04T10:11:03.557Z,2.95
2019-03-04T10:16:32.566Z,3.30
2019-03-04T10:22:13.862Z,2.52
2019-03-04T10:28:07.379Z,2.50
2019-03-04T10:33:47.701Z,3.35
2019-03-04T10:39:22.442Z,2.45
2019-03-04T10:45:12.595Z,2.52
2019-03-04T10:50:16.810Z,2.60
2019-03-04T10:55:21.126Z,2.45
2019-03-04T11:00:25.398Z,2.12
2019-03-04T11:05:29.620Z,2.90
2019-03-04T11:10:33.847Z,1.80
2019-03-04T11:15:38.066Z,1.90
2019-03-04T11:20:42.402Z,1.10
2019-03-04T11:25:46.650Z,1.50
2019-03-04T11:30:50.882Z,0.93
2019-03-04T11:35:56.312Z,1.00
2019-03-04T11:41:00.512Z,1.00
2019-03-04T11:46:05.132Z,1.83
2019-03-04T11:51:09.357Z,1.00
2019-03-04T11:56:13.561Z,1.00
2019-03-04T12:01:40.873Z,1.10
2019-03-04T12:06:45.105Z,1.00
2019-03-04T12:11:49.324Z,0.97
2019-03-04T12:16:53.640Z,0.80
2019-03-04T12:21:58.973Z,0.97
2019-03-04T12:27:06.866Z,1.17
2019-03-04T12:32:18.449Z,1.50
2019-03-04T12:37:22.659Z,1.23
2019-03-04T12:42:26.891Z,1.27
2019-03-04T12:47:31.127Z,1.00
2019-03-04T12:52:35.383Z,1.10
2019-03-04T12:57:39.933Z,1.70
2019-03-04T13:02:44.559Z,1.20
2019-03-04T13:07:48.985Z,1.20
2019-03-04T13:12:53.211Z,1.07
2019-03-04T13:17:58.267Z,0.90
2019-03-04T13:23:02.484Z,1.52
2019-03-04T13:28:08.594Z,1.40
2019-03-04T13:33:12.756Z,1.25
2019-03-04T13:38:16.976Z,0.90
2019-03-04T13:43:21.239Z,1.75
2019-03-04T13:48:25.487Z,13.55
2019-03-04T13:53:29.720Z,0.93
2019-03-04T13:58:33.942Z,1.30
2019-03-04T14:03:38.171Z,1.07
2019-03-04T14:08:42.388Z,0.80
2019-03-04T14:13:46.651Z,1.02
2019-03-04T14:18:50.885Z,0.85
2019-03-04T14:23:55.102Z,0.93
2019-03-04T14:28:59.333Z,0.90
2019-03-04T14:34:03.582Z,1.20
2019-03-04T14:39:13.630Z,1.20
2019-03-04T14:44:17.972Z,1.10
2019-03-04T14:49:22.200Z,1.12
2019-03-04T14:54:26.488Z,1.00
2019-03-04T14:59:30.736Z,1.65
2019-03-04T15:04:35.922Z,0.88
2019-03-04T15:09:49.072Z,0.60
2019-03-04T15:14:46.105Z,1.42
2019-03-04T15:19:50.340Z,1.05
2019-03-04T15:24:54.567Z,1.35
2019-03-04T15:29:58.804Z,1.72
2019-03-04T15:35:03.036Z,1.32
2019-03-04T15:40:07.549Z,1.62
2019-03-04T15:45:12.599Z,1.10
2019-03-04T15:50:16.854Z,1.25
2019-03-04T15:55:22.836Z,1.60
2019-03-04T16:00:27.234Z,1.00
2019-03-04T16:05:31.571Z,1.12
2019-03-04T16:10:37.251Z,0.90
2019-03-04T16:15:42.917Z,1.20
2019-03-04T16:20:47.496Z,0.90
2019-03-04T16:25:51.706Z,1.40
2019-03-04T16:30:56.047Z,1.00
2019-03-04T16:36:00.257Z,1.10
2019-03-04T16:41:04.493Z,0.80
2019-03-04T16:46:08.716Z,1.60
2019-03-04T16:51:12.960Z,1.43
2019-03-04T16:56:17.204Z,1.20
2019-03-04T17:01:21.425Z,1.20
2019-03-04T17:06:25.879Z,1.30
2019-03-04T17:11:30.092Z,1.47
2019-03-04T17:16:34.348Z,1.10
2019-03-04T17:21:38.696Z,1.50
2019-03-04T17:26:42.943Z,1.20
2019-03-04T17:31:47.169Z,1.03
2019-03-04T17:36:51.642Z,1.20
2019-03-04T17:41:55.836Z,1.60
2019-03-04T17:47:00.049Z,1.43
2019-03-04T17:52:04.367Z,1.47
2019-03-04T17:57:08.599Z,1.70
2019-03-04T18:02:12.971Z,1.63
2019-03-04T18:07:17.183Z,1.50
2019-03-04T18:12:21.416Z,1.83
2019-03-04T18:17:25.674Z,2.20
2019-03-04T18:22:29.939Z,1.93
2019-03-04T18:27:56.018Z,1.80
2019-03-04T18:33:44.536Z,1.93
2019-03-04T18:39:37.797Z,2.50
2019-03-04T18:44:58.335Z,2.40
2019-03-04T18:50:02.563Z,2.03
2019-03-04T18:55:07.296Z,2.20
2019-03-04T19:00:14.699Z,2.00
2019-03-04T19:05:19.020Z,2.00
2019-03-04T19:10:23.431Z,2.47
2019-03-04T19:15:27.668Z,2.13
2019-03-04T19:20:31.914Z,2.50
2019-03-04T19:25:36.140Z,2.10
2019-03-04T19:30:40.369Z,2.30
2019-03-04T19:35:44.672Z,3.97
2019-03-04T19:40:48.930Z,5.47
2019-03-04T19:45:53.178Z,1.63
2019-03-04T19:50:57.431Z,2.87
2019-03-04T19:56:01.704Z,2.33
2019-03-04T20:01:07.064Z,2.20
2019-03-04T20:06:11.324Z,2.43
2019-03-04T20:11:15.551Z,2.37
2019-03-04T20:16:20.027Z,2.47
2019-03-04T20:21:24.341Z,2.43
2019-03-04T20:26:28.984Z,2.67
2019-03-04T20:31:33.327Z,3.07
2019-03-04T20:36:37.540Z,6.00
2019-03-04T20:41:41.801Z,3.20
2019-03-04T20:46:46.030Z,2.70
2019-03-04T20:51:50.293Z,2.37
2019-03-04T20:56:54.593Z,2.30
2019-03-04T21:02:09.250Z,2.47
2019-03-04T21:07:11.266Z,2.63
2019-03-04T21:12:15.529Z,2.20
2019-03-04T21:17:19.807Z,2.13
2019-03-04T21:22:24.036Z,2.47
2019-03-04T21:27:28.553Z,2.63
2019-03-04T21:33:07.132Z,2.37
2019-03-04T21:38:11.367Z,2.60
2019-03-04T21:43:20.780Z,2.20
2019-03-04T21:48:50.153Z,11.10
2019-03-04T21:53:54.378Z,3.47
2019-03-04T21:58:58.668Z,2.73
2019-03-04T22:04:02.997Z,3.33
2019-03-04T22:09:07.379Z,7.58
2019-03-04T22:14:11.634Z,3.30
2019-03-04T22:19:15.883Z,3.33
2019-03-04T22:24:20.126Z,3.80
2019-03-04T22:29:24.465Z,3.50
2019-03-04T22:34:28.787Z,3.60
2019-03-04T22:39:33.079Z,3.37
2019-03-04T22:44:37.336Z,3.50
2019-03-04T22:49:41.587Z,3.33
2019-03-04T22:54:45.816Z,3.27
2019-03-04T22:59:50.046Z,3.70
2019-03-04T23:04:57.737Z,3.67
2019-03-04T23:10:17.711Z,3.60
2019-03-04T23:15:22.826Z,4.10
2019-03-04T23:20:27.049Z,3.53
2019-03-04T23:25:31.289Z,3.67
2019-03-04T23:30:35.611Z,3.43
2019-03-04T23:35:39.839Z,3.37
2019-03-04T23:40:44.099Z,3.03
2019-03-04T23:45:48.384Z,3.17
2019-03-04T23:50:53.062Z,3.80
2019-03-04T23:55:57.416Z,4.73
